createdAt,value
2022-12-25T00:02:00.127Z,27.40
2022-12-25T00:04:27.600Z,27.08
2022-12-25T00:06:55.799Z,27.10
2022-12-25T00:09:23.157Z,26.15
2022-12-25T00:11:50.537Z,25.23
2022-12-25T00:14:17.905Z,24.40
2022-12-25T00:16:45.293Z,24.20
2022-12-25T00:19:15.594Z,23.85
2022-12-25T00:21:42.932Z,23.02
2022-12-25T00:24:10.274Z,22.73
2022-12-25T00:26:37.667Z,23.63
2022-12-25T00:29:05.146Z,21.52
2022-12-25T00:31:32.590Z,21.40
2022-12-25T00:33:59.918Z,21.35
2022-12-25T00:36:27.219Z,21.75
2022-12-25T00:38:54.694Z,20.33
2022-12-25T00:41:42.561Z,21.38
2022-12-25T00:44:13.600Z,20.55
2022-12-25T00:46:42.206Z,21.02
2022-12-25T00:49:11.842Z,20.33
2022-12-25T00:51:39.858Z,21.15
2022-12-25T00:54:07.472Z,20.67
2022-12-25T00:56:35.224Z,20.95
2022-12-25T00:59:02.680Z,20.37
2022-12-25T01:01:30.170Z,20.67
2022-12-25T01:03:57.703Z,20.10
2022-12-25T01:06:25.496Z,20.55
2022-12-25T01:09:11.538Z,19.38
2022-12-25T01:11:38.984Z,20.15
2022-12-25T01:14:06.628Z,19.38
2022-12-25T01:16:34.400Z,19.58
2022-12-25T01:19:01.864Z,19.58
2022-12-25T01:21:29.454Z,19.42
2022-12-25T01:23:59.728Z,19.15
2022-12-25T01:26:27.551Z,19.25
2022-12-25T01:28:55.091Z,18.70
2022-12-25T01:31:24.129Z,19.63
2022-12-25T01:33:55.023Z,19.25
2022-12-25T01:36:25.236Z,18.48
2022-12-25T01:38:53.995Z,19.03
2022-12-25T01:41:23.523Z,18.35
2022-12-25T01:44:27.794Z,18.27
2022-12-25T01:46:55.124Z,18.17
2022-12-25T01:49:25.505Z,18.70
2022-12-25T01:52:12.390Z,18.95
2022-12-25T01:54:48.451Z,18.55
2022-12-25T01:57:22.443Z,18.73
2022-12-25T01:59:49.972Z,19.10
2022-12-25T02:02:17.719Z,17.48
2022-12-25T02:04:52.114Z,18.20
2022-12-25T02:07:22.366Z,18.17
2022-12-25T02:09:50.803Z,17.92
2022-12-25T02:12:34.304Z,17.67
2022-12-25T02:15:22.972Z,18.13
2022-12-25T02:18:05.435Z,17.70
2022-12-25T02:20:49.912Z,17.55
2022-12-25T02:23:50.987Z,16.95
2022-12-25T02:26:18.333Z,17.25
2022-12-25T02:28:46.228Z,16.98
2022-12-25T02:31:18.463Z,17.47
2022-12-25T02:34:05.168Z,16.52
2022-12-25T02:37:07.675Z,15.90
2022-12-25T02:39:59.879Z,15.88
2022-12-25T02:42:50.126Z,17.27
2022-12-25T02:45:42.208Z,16.27
2022-12-25T02:48:31.965Z,16.70
2022-12-25T02:51:22.552Z,15.90
2022-12-25T02:54:12.258Z,15.98
2022-12-25T02:57:00.682Z,15.05
2022-12-25T02:59:48.843Z,16.08
2022-12-25T03:02:36.964Z,14.55
2022-12-25T03:05:27.247Z,15.02
2022-12-25T03:08:01.713Z,15.00
2022-12-25T03:10:49.432Z,15.60
2022-12-25T03:13:20.993Z,15.02
2022-12-25T03:16:07.747Z,15.83
2022-12-25T03:18:35.628Z,15.30
2022-12-25T03:21:21.568Z,14.77
2022-12-25T03:24:12.531Z,15.73
2022-12-25T03:26:55.234Z,15.38
2022-12-25T03:29:52.505Z,15.50
2022-12-25T03:32:58.572Z,15.07
2022-12-25T03:36:06.292Z,15.23
2022-12-25T03:39:12.124Z,15.05
2022-12-25T03:42:11.433Z,14.18
2022-12-25T03:45:10.292Z,14.93
2022-12-25T03:47:59.917Z,14.63
2022-12-25T03:51:03.522Z,13.85
2022-12-25T03:53:58.731Z,14.90
2022-12-25T03:56:46.368Z,14.27
2022-12-25T03:59:32.138Z,14.40
2022-12-25T04:02:18.392Z,14.90
2022-12-25T04:05:04.645Z,14.50
2022-12-25T04:07:50.405Z,14.52
2022-12-25T04:10:36.180Z,14.23
2022-12-25T04:13:22.307Z,14.18
2022-12-25T04:16:09.672Z,13.82
2022-12-25T04:18:56.133Z,13.68
2022-12-25T04:21:42.562Z,13.77
2022-12-25T04:24:29.645Z,13.48
2022-12-25T04:27:15.925Z,13.17
2022-12-25T04:30:01.640Z,13.05
2022-12-25T04:32:47.867Z,13.02
2022-12-25T04:35:33.728Z,13.50
2022-12-25T04:38:01.088Z,13.80
2022-12-25T04:40:28.587Z,13.25
2022-12-25T04:42:55.956Z,13.25
2022-12-25T04:45:23.295Z,12.95
2022-12-25T04:47:50.738Z,12.45
2022-12-25T04:50:18.172Z,13.27
2022-12-25T04:52:48.614Z,12.70
2022-12-25T04:55:16.079Z,12.85
2022-12-25T04:57:43.459Z,13.25
2022-12-25T05:00:11.288Z,13.48
2022-12-25T05:02:38.756Z,12.90
2022-12-25T05:05:06.454Z,12.48
2022-12-25T05:07:33.879Z,12.93
2022-12-25T05:10:01.312Z,12.45
2022-12-25T05:12:30.149Z,13.03
2022-12-25T05:14:57.478Z,12.40
2022-12-25T05:17:24.845Z,12.73
2022-12-25T05:19:52.178Z,12.80
2022-12-25T05:22:19.574Z,13.13
2022-12-25T05:24:46.921Z,12.95
2022-12-25T05:27:17.836Z,12.98
2022-12-25T05:29:48.203Z,13.50
2022-12-25T05:32:15.583Z,12.13
2022-12-25T05:34:42.933Z,12.40
2022-12-25T05:37:10.477Z,12.90
2022-12-25T05:39:37.793Z,12.50
2022-12-25T05:42:05.259Z,12.77
2022-12-25T05:44:32.619Z,12.45
2022-12-25T05:47:00.036Z,12.60
2022-12-25T05:49:27.525Z,12.75
2022-12-25T05:51:54.837Z,12.82
2022-12-25T05:54:22.162Z,12.23
2022-12-25T05:56:49.489Z,12.95
2022-12-25T05:59:16.914Z,12.10
2022-12-25T06:01:44.331Z,12.05
2022-12-25T06:04:14.811Z,13.13
2022-12-25T06:06:42.244Z,12.30
2022-12-25T06:09:11.578Z,11.88
2022-12-25T06:11:39.399Z,12.45
2022-12-25T06:14:07.044Z,12.03
2022-12-25T06:16:38.139Z,11.95
2022-12-25T06:19:06.012Z,12.07
2022-12-25T06:21:33.414Z,11.52
2022-12-25T06:24:01.557Z,11.88
2022-12-25T06:26:29.680Z,11.88
2022-12-25T06:28:59.301Z,12.23
2022-12-25T06:31:29.313Z,12.35
2022-12-25T06:33:56.878Z,11.77
2022-12-25T06:36:26.871Z,12.38
2022-12-25T06:38:55.723Z,12.65
2022-12-25T06:41:25.982Z,11.88
2022-12-25T06:43:58.938Z,12.13
2022-12-25T06:46:28.464Z,11.77
2022-12-25T06:48:56.938Z,12.20
2022-12-25T06:51:26.914Z,12.47
2022-12-25T06:53:55.219Z,12.32
2022-12-25T06:56:26.303Z,12.60
2022-12-25T06:58:58.955Z,12.05
2022-12-25T07:01:39.780Z,11.90
2022-12-25T07:04:15.702Z,11.63
2022-12-25T07:06:43.174Z,12.20
2022-12-25T07:09:11.612Z,11.20
2022-12-25T07:11:38.992Z,12.40
2022-12-25T07:14:06.553Z,12.43
2022-12-25T07:16:34.061Z,11.40
2022-12-25T07:19:01.556Z,11.75
2022-12-25T07:21:28.903Z,12.00
2022-12-25T07:23:56.313Z,11.98
2022-12-25T07:26:23.606Z,11.77
2022-12-25T07:28:50.983Z,12.68
2022-12-25T07:31:18.791Z,12.80
2022-12-25T07:33:46.187Z,12.13
2022-12-25T07:36:14.997Z,11.63
2022-12-25T07:38:42.639Z,12.00
2022-12-25T07:41:11.684Z,12.35
2022-12-25T07:43:39.128Z,11.30
2022-12-25T07:46:06.883Z,12.40
2022-12-25T07:48:35.694Z,12.85
2022-12-25T07:51:08.047Z,12.63
2022-12-25T07:53:36.312Z,12.73
2022-12-25T07:56:06.632Z,14.27
2022-12-25T07:58:35.070Z,13.57
2022-12-25T08:01:17.841Z,14.93
2022-12-25T08:03:50.445Z,14.93
2022-12-25T08:06:18.671Z,15.73
2022-12-25T08:08:46.320Z,14.95
2022-12-25T08:11:14.119Z,15.40
2022-12-25T08:13:43.438Z,15.40
2022-12-25T08:16:11.380Z,15.10
2022-12-25T08:18:39.441Z,14.73
2022-12-25T08:21:11.616Z,14.15
2022-12-25T08:23:44.220Z,14.57
2022-12-25T08:26:14.782Z,14.52
2022-12-25T08:28:42.446Z,13.63
2022-12-25T08:31:30.557Z,13.50
2022-12-25T08:33:58.765Z,14.50
2022-12-25T08:36:26.220Z,13.32
2022-12-25T08:39:00.383Z,12.70
2022-12-25T08:41:29.711Z,12.38
2022-12-25T08:43:59.788Z,11.82
2022-12-25T08:46:30.109Z,12.02
2022-12-25T08:48:57.702Z,12.30
2022-12-25T08:51:26.141Z,12.50
2022-12-25T08:53:57.821Z,13.27
2022-12-25T08:56:25.218Z,12.57
2022-12-25T08:58:53.734Z,12.47
2022-12-25T09:01:21.339Z,12.18
2022-12-25T09:03:48.841Z,13.23
2022-12-25T09:06:16.849Z,12.10
2022-12-25T09:08:49.044Z,12.35
2022-12-25T09:11:18.438Z,12.05
2022-12-25T09:13:46.247Z,12.47
2022-12-25T09:16:17.289Z,12.02
2022-12-25T09:18:47.785Z,12.25
2022-12-25T09:21:16.221Z,12.52
2022-12-25T09:23:43.984Z,11.88
2022-12-25T09:26:14.236Z,12.32
2022-12-25T09:28:50.312Z,12.02
2022-12-25T09:31:19.171Z,12.10
2022-12-25T09:33:49.803Z,12.20
2022-12-25T09:36:17.863Z,11.43
2022-12-25T09:38:45.211Z,11.27
2022-12-25T09:41:30.465Z,12.30
2022-12-25T09:44:07.423Z,12.40
2022-12-25T09:46:50.319Z,12.27
2022-12-25T09:49:55.535Z,12.73
2022-12-25T09:52:46.086Z,12.68
2022-12-25T09:55:22.865Z,12.75
2022-12-25T09:57:53.415Z,13.15
2022-12-25T10:00:24.697Z,13.07
2022-12-25T10:03:26.074Z,13.13
2022-12-25T10:06:25.235Z,12.90
2022-12-25T10:09:24.905Z,12.98
2022-12-25T10:12:14.322Z,12.63
2022-12-25T10:15:08.013Z,12.73
2022-12-25T10:17:54.120Z,12.15
2022-12-25T10:20:55.186Z,12.52
2022-12-25T10:23:22.549Z,13.07
2022-12-25T10:25:51.721Z,12.20
2022-12-25T10:28:28.498Z,11.52
2022-12-25T10:30:59.723Z,10.45
2022-12-25T10:33:28.306Z,11.75
2022-12-25T10:35:56.787Z,11.70
2022-12-25T10:38:24.086Z,11.90
2022-12-25T10:41:06.567Z,12.00
2022-12-25T10:43:42.783Z,11.02
2022-12-25T10:46:15.283Z,11.60
2022-12-25T10:48:47.634Z,12.02
2022-12-25T10:51:25.666Z,12.90
2022-12-25T10:53:53.026Z,13.63
2022-12-25T10:56:20.310Z,13.05
2022-12-25T10:58:47.714Z,14.43
2022-12-25T11:01:15.529Z,14.47
2022-12-25T11:03:50.932Z,14.35
2022-12-25T11:06:32.168Z,14.48
2022-12-25T11:09:02.172Z,15.07
2022-12-25T11:11:31.237Z,13.63
2022-12-25T11:14:00.968Z,13.77
2022-12-25T11:16:38.077Z,14.07
2022-12-25T11:19:30.689Z,14.63
2022-12-25T11:22:01.016Z,14.98
2022-12-25T11:24:30.942Z,14.25
2022-12-25T11:27:04.939Z,13.13
2022-12-25T11:29:47.398Z,13.30
2022-12-25T11:32:31.370Z,13.38
2022-12-25T11:34:59.524Z,13.30
2022-12-25T11:37:51.500Z,12.88
2022-12-25T11:40:21.611Z,13.15
2022-12-25T11:42:51.112Z,13.40
2022-12-25T11:45:30.065Z,13.00
2022-12-25T11:48:02.352Z,12.82
2022-12-25T11:50:36.959Z,13.57
2022-12-25T11:53:20.402Z,13.80
2022-12-25T11:55:57.226Z,12.63
2022-12-25T11:58:26.870Z,13.55
2022-12-25T12:00:57.301Z,13.00
2022-12-25T12:03:38.451Z,12.45
2022-12-25T12:06:15.233Z,12.77
2022-12-25T12:08:43.475Z,13.15
2022-12-25T12:11:32.456Z,13.43
2022-12-25T12:14:43.100Z,15.07
2022-12-25T12:17:13.338Z,15.40
2022-12-25T12:19:40.718Z,16.10
2022-12-25T12:22:21.377Z,15.48
2022-12-25T12:24:57.896Z,15.68
2022-12-25T12:27:37.779Z,16.17
2022-12-25T12:30:06.811Z,13.73
2022-12-25T12:32:40.901Z,13.40
2022-12-25T12:35:19.651Z,14.70
2022-12-25T12:37:52.286Z,13.77
2022-12-25T12:40:42.197Z,13.85
2022-12-25T12:43:30.304Z,13.73
2022-12-25T12:46:07.369Z,13.47
2022-12-25T12:48:40.819Z,13.40
2022-12-25T12:51:11.659Z,13.45
2022-12-25T12:53:43.735Z,13.83
2022-12-25T12:56:11.251Z,13.38
2022-12-25T12:58:45.335Z,13.63
2022-12-25T13:01:27.819Z,14.13
2022-12-25T13:04:13.858Z,12.90
2022-12-25T13:07:04.269Z,13.33
2022-12-25T13:09:58.581Z,14.02
2022-12-25T13:12:26.172Z,13.82
2022-12-25T13:14:53.835Z,14.47
2022-12-25T13:17:26.524Z,14.10
2022-12-25T13:20:00.285Z,14.82
2022-12-25T13:22:35.829Z,14.30
2022-12-25T13:25:08.858Z,15.25
2022-12-25T13:27:38.925Z,15.07
2022-12-25T13:30:19.977Z,15.40
2022-12-25T13:32:47.324Z,15.65
2022-12-25T13:35:16.849Z,14.45
2022-12-25T13:37:45.184Z,15.70
2022-12-25T13:40:28.423Z,15.65
2022-12-25T13:42:59.615Z,15.60
2022-12-25T13:45:29.375Z,14.93
2022-12-25T13:47:57.096Z,16.27
2022-12-25T13:50:31.470Z,16.00
2022-12-25T13:53:16.692Z,14.85
2022-12-25T13:55:55.242Z,15.85
2022-12-25T13:58:29.426Z,15.38
2022-12-25T14:01:01.474Z,15.45
2022-12-25T14:03:31.867Z,16.10
2022-12-25T14:06:01.810Z,15.55
2022-12-25T14:08:32.268Z,16.27
2022-12-25T14:11:05.581Z,15.18
2022-12-25T14:13:40.222Z,15.43
2022-12-25T14:16:08.548Z,17.13
2022-12-25T14:18:36.229Z,15.02
2022-12-25T14:21:08.092Z,16.45
2022-12-25T14:23:41.017Z,16.23
2022-12-25T14:26:19.615Z,16.15
2022-12-25T14:28:53.538Z,16.10
2022-12-25T14:31:21.688Z,19.65
2022-12-25T14:33:50.946Z,21.00
2022-12-25T14:36:18.871Z,22.05
2022-12-25T14:38:57.124Z,20.13
2022-12-25T14:41:39.345Z,20.48
2022-12-25T14:44:26.267Z,20.15
2022-12-25T14:47:04.885Z,21.97
2022-12-25T14:49:32.945Z,22.55
2022-12-25T14:52:06.242Z,22.63
2022-12-25T14:54:33.679Z,21.55
2022-12-25T14:57:01.047Z,20.63
2022-12-25T14:59:29.945Z,20.02
2022-12-25T15:02:04.016Z,20.40
2022-12-25T15:04:31.629Z,22.17
2022-12-25T15:07:09.620Z,20.73
2022-12-25T15:09:37.817Z,19.50
2022-12-25T15:12:07.964Z,19.08
2022-12-25T15:14:38.413Z,19.98
2022-12-25T15:17:05.796Z,21.00
2022-12-25T15:19:38.683Z,20.35
2022-12-25T15:22:06.988Z,20.20
2022-12-25T15:24:34.356Z,18.67
2022-12-25T15:27:01.819Z,19.27
2022-12-25T15:30:07.960Z,18.33
2022-12-25T15:32:22.961Z,18.65
2022-12-25T15:34:51.274Z,17.33
2022-12-25T15:37:18.953Z,17.67
2022-12-25T15:39:46.598Z,17.80
2022-12-25T15:42:16.873Z,16.85
2022-12-25T15:44:45.441Z,17.35
2022-12-25T15:47:14.358Z,17.20
2022-12-25T15:49:42.222Z,17.63
2022-12-25T15:52:13.538Z,18.30
2022-12-25T15:54:40.975Z,17.77
2022-12-25T15:57:17.409Z,17.92
2022-12-25T15:59:44.738Z,19.13
2022-12-25T16:02:20.635Z,24.67
2022-12-25T16:04:51.006Z,26.35
2022-12-25T16:07:21.679Z,24.13
2022-12-25T16:09:49.825Z,23.50
2022-12-25T16:12:18.448Z,22.63
2022-12-25T16:14:45.844Z,22.67
2022-12-25T16:17:15.589Z,22.10
2022-12-25T16:19:44.892Z,22.15
2022-12-25T16:22:23.731Z,21.67
2022-12-25T16:24:54.408Z,21.10
2022-12-25T16:27:22.102Z,20.25
2022-12-25T16:29:49.568Z,21.20
2022-12-25T16:32:19.599Z,20.30
2022-12-25T16:34:49.020Z,19.67
2022-12-25T16:37:16.493Z,21.52
2022-12-25T16:39:43.766Z,23.13
2022-12-25T16:42:11.076Z,22.25
2022-12-25T16:44:38.453Z,22.35
2022-12-25T16:47:08.674Z,22.02
2022-12-25T16:49:36.012Z,22.05
2022-12-25T16:52:03.900Z,20.98
2022-12-25T16:54:31.261Z,18.80
2022-12-25T16:56:58.689Z,19.77
2022-12-25T16:59:28.570Z,19.25
2022-12-25T17:01:55.986Z,13.75
2022-12-25T17:04:23.428Z,31.27
2022-12-25T17:06:50.758Z,63.20
2022-12-25T17:09:18.147Z,224.20
2022-12-25T17:11:45.538Z,155.32
2022-12-25T17:14:15.749Z,72.85
2022-12-25T17:16:43.217Z,47.23
2022-12-25T17:19:19.603Z,36.87
2022-12-25T17:21:50.537Z,29.87
2022-12-25T17:24:18.012Z,29.55
2022-12-25T17:26:45.524Z,29.65
2022-12-25T17:29:19.997Z,28.63
2022-12-25T17:31:52.148Z,26.95
2022-12-25T17:34:19.902Z,26.65
2022-12-25T17:36:47.909Z,25.73
2022-12-25T17:39:15.283Z,24.73
2022-12-25T17:41:42.666Z,24.48
2022-12-25T17:44:10.464Z,24.05
2022-12-25T17:46:38.736Z,23.20
2022-12-25T17:49:06.179Z,23.13
2022-12-25T17:51:36.648Z,22.77
2022-12-25T17:54:04.258Z,23.10
2022-12-25T17:56:32.658Z,22.15
2022-12-25T17:59:06.527Z,22.95
2022-12-25T18:01:36.043Z,22.65
2022-12-25T18:04:04.386Z,21.63
2022-12-25T18:06:33.849Z,21.20
2022-12-25T18:09:01.570Z,20.50
2022-12-25T18:11:33.178Z,20.33
2022-12-25T18:14:03.856Z,184.00
2022-12-25T18:16:33.744Z,328.40
2022-12-25T18:19:01.684Z,153.93
2022-12-25T18:21:29.282Z,100.10
2022-12-25T18:23:56.864Z,76.50
2022-12-25T18:26:28.615Z,49.42
2022-12-25T18:28:56.263Z,32.92
2022-12-25T18:31:26.221Z,27.63
2022-12-25T18:33:54.353Z,23.65
2022-12-25T18:36:24.973Z,23.02
2022-12-25T18:38:54.308Z,21.88
2022-12-25T18:41:23.059Z,22.08
2022-12-25T18:43:55.608Z,22.13
2022-12-25T18:46:25.868Z,22.30
2022-12-25T18:48:55.167Z,22.70
2022-12-25T18:51:22.858Z,22.80
2022-12-25T18:53:51.081Z,22.23
2022-12-25T18:56:20.425Z,21.83
2022-12-25T18:58:48.623Z,22.13
2022-12-25T19:01:22.407Z,21.83
2022-12-25T19:03:57.314Z,22.27
2022-12-25T19:06:32.789Z,22.40
2022-12-25T19:09:09.067Z,21.17
2022-12-25T19:11:45.636Z,21.58
2022-12-25T19:14:14.942Z,21.55
2022-12-25T19:16:43.810Z,21.85
2022-12-25T19:19:11.521Z,21.35
2022-12-25T19:21:38.956Z,22.48
2022-12-25T19:24:06.951Z,22.30
2022-12-25T19:26:35.969Z,22.02
2022-12-25T19:29:03.506Z,22.53
2022-12-25T19:31:30.902Z,23.73
2022-12-25T19:33:58.315Z,22.90
2022-12-25T19:36:25.693Z,22.85
2022-12-25T19:38:53.523Z,22.70
2022-12-25T19:41:20.975Z,21.70
2022-12-25T19:43:49.346Z,22.48
2022-12-25T19:46:19.373Z,22.38
2022-12-25T19:48:47.361Z,22.42
2022-12-25T19:51:22.008Z,22.38
2022-12-25T19:53:50.125Z,22.40
2022-12-25T19:56:18.350Z,22.58
2022-12-25T19:58:46.005Z,23.20
2022-12-25T20:01:20.396Z,24.45
2022-12-25T20:03:49.313Z,24.15
2022-12-25T20:06:24.952Z,24.20
2022-12-25T20:08:54.653Z,24.98
2022-12-25T20:11:24.173Z,25.27
2022-12-25T20:13:51.805Z,24.58
2022-12-25T20:16:19.413Z,24.60
2022-12-25T20:18:46.853Z,25.40
2022-12-25T20:21:16.598Z,24.98
2022-12-25T20:23:45.737Z,25.38
2022-12-25T20:26:13.790Z,24.23
2022-12-25T20:28:42.395Z,25.43
2022-12-25T20:31:14.040Z,24.77
2022-12-25T20:33:41.440Z,24.38
2022-12-25T20:36:09.163Z,24.40
2022-12-25T20:38:37.112Z,24.48
2022-12-25T20:41:28.051Z,23.70
2022-12-25T20:43:56.808Z,24.10
2022-12-25T20:46:25.562Z,23.98
2022-12-25T20:48:53.424Z,24.42
2022-12-25T20:51:23.629Z,23.70
2022-12-25T20:53:51.951Z,24.00
2022-12-25T20:56:21.489Z,24.27
2022-12-25T20:58:54.050Z,24.35
2022-12-25T21:01:22.108Z,25.75
2022-12-25T21:03:49.973Z,26.15
2022-12-25T21:06:17.528Z,26.00
2022-12-25T21:08:45.071Z,26.95
2022-12-25T21:11:14.200Z,27.47
2022-12-25T21:13:43.577Z,26.60
2022-12-25T21:16:21.627Z,26.02
2022-12-25T21:18:51.662Z,25.20
2022-12-25T21:21:20.122Z,25.20
2022-12-25T21:23:47.905Z,23.92
2022-12-25T21:26:24.929Z,22.05
2022-12-25T21:28:54.630Z,20.55
2022-12-25T21:31:22.277Z,19.55
2022-12-25T21:33:54.021Z,19.60
2022-12-25T21:36:30.442Z,19.83
2022-12-25T21:38:59.027Z,21.20
2022-12-25T21:41:28.178Z,21.05
2022-12-25T21:43:56.117Z,20.95
2022-12-25T21:46:24.037Z,20.98
2022-12-25T21:48:52.096Z,21.15
2022-12-25T21:51:40.962Z,22.33
2022-12-25T21:54:08.550Z,21.67
2022-12-25T21:56:43.444Z,21.75
2022-12-25T21:59:14.896Z,21.63
2022-12-25T22:01:42.990Z,21.45
2022-12-25T22:04:12.799Z,22.67
2022-12-25T22:06:59.293Z,22.27
2022-12-25T22:09:26.936Z,22.67
2022-12-25T22:12:12.658Z,21.57
2022-12-25T22:14:54.313Z,21.70
2022-12-25T22:17:49.771Z,20.43
2022-12-25T22:20:25.860Z,18.55
2022-12-25T22:22:53.519Z,17.05
2022-12-25T22:25:21.484Z,17.05
2022-12-25T22:27:49.744Z,15.27
2022-12-25T22:30:20.330Z,14.43
2022-12-25T22:32:48.791Z,14.98
2022-12-25T22:35:16.844Z,14.15
2022-12-25T22:37:45.400Z,14.87
2022-12-25T22:40:15.402Z,15.98
2022-12-25T22:42:43.097Z,17.20
2022-12-25T22:45:11.278Z,15.35
2022-12-25T22:47:38.688Z,15.53
2022-12-25T22:50:07.238Z,15.37
2022-12-25T22:52:34.829Z,15.88
2022-12-25T22:55:03.128Z,17.63
2022-12-25T22:57:30.443Z,15.90
2022-12-25T22:59:57.863Z,16.08
2022-12-25T23:02:25.579Z,16.75
2022-12-25T23:04:53.660Z,16.52
2022-12-25T23:07:21.044Z,18.00
2022-12-25T23:09:48.599Z,17.80
2022-12-25T23:12:34.657Z,17.60
2022-12-25T23:15:02.032Z,18.20
2022-12-25T23:17:47.833Z,18.75
2022-12-25T23:20:34.186Z,18.23
2022-12-25T23:23:20.759Z,18.05
2022-12-25T23:26:06.675Z,18.60
2022-12-25T23:28:53.431Z,19.13
2022-12-25T23:31:25.454Z,19.65
2022-12-25T23:33:52.889Z,19.15
2022-12-25T23:36:20.333Z,20.00
2022-12-25T23:38:47.620Z,20.67
2022-12-25T23:41:15.014Z,21.23
2022-12-25T23:43:42.584Z,21.05
2022-12-25T23:46:10.020Z,21.70
2022-12-25T23:48:37.568Z,21.40
2022-12-25T23:51:06.453Z,22.25
2022-12-25T23:53:34.759Z,23.00
2022-12-25T23:56:02.539Z,22.83
2022-12-25T23:58:29.867Z,24.85
